Time;durP1;ratioP1;P1;durP2;ratioP2;P2;SDS_P1;SDS_P2;PMS_P1;PMS_P2;Temp;Humidity;BMP_temperature;BMP_pressure;BME280_temperature;BME280_humidity;BME280_pressure;Samples;Min_cycle;Max_cycle;Signal;HPM_P1;HPM_P2
2022/08/28 00:02:06;;;;;;;29.52;17.65;;;19.00;99.90;;;;;;5020928;28;20034;-80
2022/08/28 00:04:33;;;;;;;27.80;19.42;;;19.00;99.90;;;;;;5019850;28;20053;-80
2022/08/28 00:06:58;;;;;;;30.95;19.38;;;19.00;99.90;;;;;;5012032;28;20429;-77
2022/08/28 00:09:24;;;;;;;28.02;18.75;;;19.00;99.90;;;;;;5008319;28;20034;-79
2022/08/28 00:11:50;;;;;;;28.45;19.40;;;19.00;99.90;;;;;;5003092;28;20079;-79
2022/08/28 00:14:19;;;;;;;29.10;19.20;;;19.00;99.90;;;;;;5010542;28;20379;-80
2022/08/28 00:16:46;;;;;;;29.33;19.17;;;19.10;99.90;;;;;;5029361;28;20093;-79
2022/08/28 00:19:13;;;;;;;27.00;18.27;;;19.10;99.90;;;;;;5012934;28;20044;-78
2022/08/28 00:21:39;;;;;;;27.58;18.58;;;19.10;99.90;;;;;;5014544;28;20030;-79
2022/08/28 00:24:05;;;;;;;30.60;20.55;;;19.10;99.90;;;;;;5021878;28;20033;-79
2022/08/28 00:29:14;;;;;;;;;;;19.00;99.90;;;;;;5012204;28;20115;-78
2022/08/28 00:31:40;;;;;;;28.63;18.42;;;19.10;99.90;;;;;;5011371;28;19909;-78
2022/08/28 00:34:07;;;;;;;24.20;17.67;;;19.00;99.90;;;;;;5011843;28;20509;-78
2022/08/28 00:36:34;;;;;;;27.58;18.77;;;19.00;99.90;;;;;;5010046;28;20491;-78
2022/08/28 00:39:00;;;;;;;27.52;19.17;;;19.00;99.90;;;;;;5011100;28;20038;-77
2022/08/28 00:41:28;;;;;;;28.02;18.92;;;19.00;99.90;;;;;;5024781;28;20057;-78
2022/08/28 00:44:15;;;;;;;28.08;18.20;;;19.00;99.90;;;;;;5024880;28;20084;-79
2022/08/28 00:46:43;;;;;;;28.20;19.30;;;19.00;99.90;;;;;;5008101;28;20053;-78
2022/08/28 00:49:10;;;;;;;29.25;19.17;;;19.00;99.90;;;;;;5027056;28;20030;-77
2022/08/28 00:54:22;;;;;;;29.10;18.80;;;19.10;99.90;;;;;;5011986;28;20034;-78
2022/08/28 00:56:48;;;;;;;32.28;20.10;;;19.00;99.90;;;;;;5011576;28;20034;-79
2022/08/28 00:59:17;;;;;;;31.08;20.88;;;19.00;99.90;;;;;;5011201;28;20034;-78
2022/08/28 01:01:44;;;;;;;32.80;22.38;;;19.10;99.90;;;;;;5011942;28;20068;-79
2022/08/28 01:04:16;;;;;;;39.58;24.08;;;19.10;99.90;;;;;;5012319;28;20025;-78
2022/08/28 01:06:44;;;;;;;29.92;21.15;;;19.10;99.90;;;;;;5007651;28;20096;-78
2022/08/28 01:09:14;;;;;;;35.63;22.27;;;19.10;99.90;;;;;;5015411;28;20072;-78
2022/08/28 01:11:42;;;;;;;36.05;21.90;;;19.10;99.90;;;;;;5010780;28;20022;-78
2022/08/28 01:14:10;;;;;;;33.17;22.67;;;19.10;99.90;;;;;;5009344;28;20022;-78
2022/08/28 01:16:37;;;;;;;33.33;21.90;;;19.10;99.90;;;;;;5014023;28;20030;-78
2022/08/28 01:19:08;;;;;;;31.85;21.25;;;19.10;99.90;;;;;;5018517;28;20026;-79
2022/08/28 01:22:09;;;;;;;36.58;22.73;;;19.00;99.90;;;;;;5025505;28;20041;-78
2022/08/28 01:24:37;;;;;;;34.33;22.38;;;19.10;99.90;;;;;;5008459;28;20041;-78
2022/08/28 01:27:03;;;;;;;34.47;22.42;;;19.10;99.90;;;;;;5012351;28;20445;-79
2022/08/28 01:29:29;;;;;;;32.10;22.40;;;19.10;99.90;;;;;;5006983;28;20018;-78
2022/08/28 01:31:55;;;;;;;37.60;24.70;;;19.10;99.90;;;;;;5027924;28;20037;-79
2022/08/28 01:34:21;;;;;;;41.75;25.35;;;19.10;99.90;;;;;;5020913;28;20026;-79
2022/08/28 01:36:47;;;;;;;38.67;25.73;;;19.10;99.90;;;;;;5031219;28;20053;-78
2022/08/28 01:39:19;;;;;;;42.20;26.40;;;19.10;99.90;;;;;;5016138;28;20030;-79
2022/08/28 01:41:47;;;;;;;41.35;26.05;;;19.10;99.90;;;;;;5013174;28;20037;-78
2022/08/28 01:44:18;;;;;;;35.35;24.83;;;19.10;99.90;;;;;;5015376;28;20037;-78
2022/08/28 01:46:45;;;;;;;39.05;25.02;;;19.10;99.90;;;;;;5014133;28;20140;-77
2022/08/28 01:49:11;;;;;;;41.28;25.13;;;19.10;99.90;;;;;;5014570;28;20367;-78
2022/08/28 01:51:40;;;;;;;35.72;23.98;;;19.10;99.90;;;;;;5013768;28;20032;-77
2022/08/28 01:54:07;;;;;;;36.60;24.30;;;19.10;99.90;;;;;;5011194;28;20030;-78
2022/08/28 01:56:33;;;;;;;41.20;24.60;;;19.10;99.90;;;;;;5012160;28;20026;-78
2022/08/28 01:59:02;;;;;;;35.13;23.10;;;19.00;99.90;;;;;;5033704;28;20054;-77
2022/08/28 02:01:28;;;;;;;31.30;22.25;;;19.00;99.90;;;;;;5015628;28;20030;-78
2022/08/28 02:03:54;;;;;;;32.83;22.92;;;19.00;99.90;;;;;;5013456;28;20105;-77
2022/08/28 02:06:20;;;;;;;34.17;20.52;;;19.00;99.90;;;;;;5010858;28;20113;-78
2022/08/28 02:08:48;;;;;;;32.08;20.92;;;19.00;99.90;;;;;;5028404;28;20026;-77
2022/08/28 02:11:15;;;;;;;29.25;19.45;;;19.00;99.90;;;;;;5016455;28;20022;-77
2022/08/28 02:13:41;;;;;;;27.38;18.95;;;18.90;99.90;;;;;;5027429;28;20036;-78
2022/08/28 02:16:09;;;;;;;29.15;18.50;;;18.90;99.90;;;;;;5027724;28;20026;-78
2022/08/28 02:18:36;;;;;;;30.40;20.30;;;18.90;99.90;;;;;;5030281;28;20040;-78
2022/08/28 02:21:03;;;;;;;35.75;21.40;;;18.90;99.90;;;;;;5015906;28;20482;-78
2022/08/28 02:23:28;;;;;;;36.60;22.45;;;18.90;99.90;;;;;;5014186;28;20029;-78
2022/08/28 02:25:54;;;;;;;30.63;21.80;;;18.90;99.90;;;;;;5027089;28;20444;-78
2022/08/28 02:28:20;;;;;;;32.15;21.30;;;18.90;99.90;;;;;;5015547;28;20129;-78
2022/08/28 02:30:48;;;;;;;36.35;22.58;;;18.90;99.90;;;;;;5027227;28;20022;-78
2022/08/28 02:33:15;;;;;;;32.92;21.88;;;18.90;99.90;;;;;;5030412;28;20141;-78
2022/08/28 02:35:41;;;;;;;34.22;23.45;;;18.90;99.90;;;;;;5007897;28;20101;-78
2022/08/28 02:38:08;;;;;;;43.95;24.48;;;18.90;99.90;;;;;;5016717;28;20026;-78
2022/08/28 02:40:33;;;;;;;36.85;23.08;;;18.90;99.90;;;;;;5030382;28;20030;-78
2022/08/28 02:42:59;;;;;;;36.38;23.65;;;18.90;99.90;;;;;;5013482;28;20041;-78
2022/08/28 02:45:25;;;;;;;40.40;24.88;;;18.90;99.90;;;;;;5013328;28;20132;-78
2022/08/28 02:47:53;;;;;;;37.40;24.13;;;18.90;99.90;;;;;;5029368;28;20029;-78
2022/08/28 02:50:19;;;;;;;34.67;22.77;;;18.80;99.90;;;;;;5009172;28;20019;-77
2022/08/28 02:52:46;;;;;;;38.47;24.00;;;18.80;99.90;;;;;;5010342;28;20028;-78
2022/08/28 02:55:16;;;;;;;39.00;25.50;;;18.80;99.90;;;;;;5010120;28;20037;-77
2022/08/28 02:57:42;;;;;;;39.72;24.58;;;18.80;99.90;;;;;;5028485;28;20509;-77
2022/08/28 03:00:11;;;;;;;43.97;25.83;;;18.80;99.90;;;;;;5012247;28;20026;-78
2022/08/28 03:02:38;;;;;;;36.78;23.88;;;18.80;99.90;;;;;;5011597;28;20033;-78
2022/08/28 03:05:04;;;;;;;40.30;23.98;;;18.80;99.90;;;;;;5010843;28;20068;-78
2022/08/28 03:07:29;;;;;;;38.78;24.90;;;18.80;99.90;;;;;;5012176;28;20512;-78
2022/08/28 03:09:55;;;;;;;36.90;24.75;;;18.80;99.90;;;;;;5013577;28;20034;-78
2022/08/28 03:12:24;;;;;;;36.92;24.65;;;18.80;99.90;;;;;;5010300;28;20025;-78
2022/08/28 03:14:51;;;;;;;43.13;25.95;;;18.90;99.90;;;;;;5027097;28;20034;-78
2022/08/28 03:17:17;;;;;;;41.90;26.52;;;18.90;99.90;;;;;;5009573;28;20054;-78
2022/08/28 03:19:43;;;;;;;43.78;27.67;;;18.90;99.90;;;;;;5010553;28;20081;-77
2022/08/28 03:22:09;;;;;;;47.83;28.27;;;18.90;99.90;;;;;;5013998;28;20026;-78
2022/08/28 03:24:36;;;;;;;46.30;27.48;;;18.90;99.90;;;;;;5012473;28;20535;-79
2022/08/28 03:27:03;;;;;;;44.60;26.58;;;18.90;99.90;;;;;;5020944;28;20184;-78
2022/08/28 03:29:29;;;;;;;48.92;28.52;;;19.00;99.90;;;;;;5009439;28;20483;-79
2022/08/28 03:31:55;;;;;;;49.60;28.30;;;19.00;99.90;;;;;;5010492;28;20040;-78
2022/08/28 03:34:20;;;;;;;46.80;28.52;;;19.00;99.90;;;;;;5010603;28;20033;-78
2022/08/28 03:36:46;;;;;;;48.58;29.33;;;19.00;99.90;;;;;;5012515;28;20145;-79
2022/08/28 03:39:12;;;;;;;51.45;29.92;;;19.00;99.90;;;;;;5011206;28;20061;-78
2022/08/28 03:41:39;;;;;;;56.05;32.28;;;19.00;99.90;;;;;;5009734;28;20030;-78
2022/08/28 03:44:05;;;;;;;58.17;30.50;;;18.90;99.90;;;;;;5025574;28;20048;-78
2022/08/28 03:46:32;;;;;;;51.95;30.98;;;18.90;99.90;;;;;;5011079;28;20037;-78
2022/08/28 03:48:59;;;;;;;56.15;32.15;;;18.90;99.90;;;;;;5014436;28;20026;-78
2022/08/28 03:51:29;;;;;;;57.08;32.15;;;18.80;99.90;;;;;;5013676;28;20558;-79
2022/08/28 03:53:58;;;;;;;58.58;33.08;;;18.80;99.90;;;;;;5021956;28;20506;-78
2022/08/28 03:56:27;;;;;;;63.97;34.20;;;18.80;99.90;;;;;;5015129;28;20026;-79
2022/08/28 03:58:56;;;;;;;59.75;33.33;;;18.70;99.90;;;;;;5011677;28;20109;-79
2022/08/28 04:01:22;;;;;;;60.72;31.60;;;18.70;99.90;;;;;;5013891;28;20018;-78
2022/08/28 04:03:48;;;;;;;61.90;33.10;;;18.70;99.90;;;;;;5012200;28;20077;-78
2022/08/28 04:06:14;;;;;;;67.93;34.25;;;18.60;99.90;;;;;;5030143;28;20088;-77
2022/08/28 04:08:41;;;;;;;69.35;34.58;;;18.60;99.90;;;;;;5010284;28;20043;-78
2022/08/28 04:11:06;;;;;;;77.38;37.08;;;18.60;99.90;;;;;;5012555;28;20029;-78
2022/08/28 04:13:32;;;;;;;73.40;37.13;;;18.60;99.90;;;;;;5012344;28;20034;-79
2022/08/28 04:16:04;;;;;;;73.10;36.45;;;18.60;99.90;;;;;;5011761;28;20026;-78
2022/08/28 04:18:30;;;;;;;72.13;35.47;;;18.60;99.90;;;;;;5023383;28;20137;-78
2022/08/28 04:21:08;;;;;;;73.15;37.63;;;18.60;99.90;;;;;;5027319;28;20125;-78
2022/08/28 04:23:35;;;;;;;69.60;36.72;;;18.50;99.90;;;;;;5026329;28;20592;-77
2022/08/28 04:26:04;;;;;;;73.07;36.72;;;18.50;99.90;;;;;;5010128;28;20029;-77
2022/08/28 04:28:31;;;;;;;70.88;36.88;;;18.50;99.90;;;;;;5011356;28;20022;-77
2022/08/28 04:30:57;;;;;;;67.28;35.22;;;18.50;99.90;;;;;;5012213;28;20022;-78
2022/08/28 04:33:24;;;;;;;61.55;34.05;;;18.50;99.90;;;;;;5023767;28;20036;-78
2022/08/28 04:35:50;;;;;;;60.42;33.42;;;18.50;99.90;;;;;;5019543;28;20030;-78
2022/08/28 04:38:16;;;;;;;58.10;33.40;;;18.50;99.90;;;;;;5008892;28;20537;-78
2022/08/28 04:40:42;;;;;;;58.63;32.83;;;18.60;99.90;;;;;;5011918;28;20037;-76
2022/08/28 04:43:08;;;;;;;64.68;37.40;;;18.60;99.90;;;;;;5026210;28;20038;-78
2022/08/28 04:45:42;;;;;;;64.95;33.97;;;18.60;99.90;;;;;;5009750;28;20045;-78
2022/08/28 04:48:09;;;;;;;52.47;31.33;;;18.60;99.90;;;;;;5026811;28;20037;-78
2022/08/28 04:50:39;;;;;;;56.33;32.58;;;18.60;99.90;;;;;;5010922;28;20057;-77
2022/08/28 04:53:05;;;;;;;68.05;33.40;;;18.60;99.90;;;;;;5004526;28;20018;-78
2022/08/28 04:55:31;;;;;;;65.03;36.10;;;18.60;99.90;;;;;;5026338;28;20029;-79
2022/08/28 04:57:56;;;;;;;60.67;34.28;;;18.60;99.90;;;;;;5008125;28;20048;-78
2022/08/28 05:00:22;;;;;;;62.78;34.75;;;18.60;99.90;;;;;;5009184;28;20054;-78
2022/08/28 05:02:48;;;;;;;61.95;32.95;;;18.60;99.90;;;;;;5016054;28;20033;-78
2022/08/28 05:05:14;;;;;;;58.97;33.33;;;18.60;99.90;;;;;;5010271;28;20034;-78
2022/08/28 05:07:39;;;;;;;65.93;34.08;;;18.60;99.90;;;;;;5008920;28;20034;-78
2022/08/28 05:10:06;;;;;;;64.15;33.63;;;18.60;99.90;;;;;;5011624;28;20022;-77
2022/08/28 05:12:35;;;;;;;64.70;33.90;;;18.50;99.90;;;;;;5009334;28;20026;-78
2022/08/28 05:15:01;;;;;;;66.13;35.17;;;18.60;99.90;;;;;;5011499;28;20022;-77
2022/08/28 05:17:27;;;;;;;55.85;30.05;;;18.60;99.90;;;;;;5007972;28;20044;-78
2022/08/28 05:19:53;;;;;;;53.53;31.25;;;18.60;99.90;;;;;;5010483;28;20034;-78
2022/08/28 05:22:19;;;;;;;57.40;30.95;;;18.60;99.90;;;;;;5012120;28;20046;-78
2022/08/28 05:24:44;;;;;;;53.70;30.42;;;18.60;99.90;;;;;;5012988;28;20030;-77
2022/08/28 05:27:10;;;;;;;55.80;31.77;;;18.60;99.90;;;;;;5010323;28;20034;-79
2022/08/28 05:29:36;;;;;;;57.90;32.78;;;18.60;99.90;;;;;;5011693;28;20022;-77
2022/08/28 05:32:02;;;;;;;56.42;32.50;;;18.60;99.90;;;;;;5010384;28;20022;-78
2022/08/28 05:34:28;;;;;;;56.95;30.48;;;18.60;99.90;;;;;;5004015;28;20052;-78
2022/08/28 05:36:53;;;;;;;54.00;32.45;;;18.60;99.90;;;;;;5011548;28;20109;-78
2022/08/28 05:39:19;;;;;;;56.47;30.70;;;18.60;99.90;;;;;;5011470;28;20137;-78
2022/08/28 05:41:46;;;;;;;55.95;32.13;;;18.60;99.90;;;;;;5011308;28;20505;-81
2022/08/28 05:44:15;;;;;;;53.78;30.45;;;18.50;99.90;;;;;;5038883;23;20132;-75
2022/08/28 05:46:43;;;;;;;51.63;30.88;;;18.50;99.90;;;;;;5040446;28;20126;-75
2022/08/28 05:49:09;;;;;;;53.83;30.88;;;18.50;99.90;;;;;;5040925;28;20458;-75
2022/08/28 05:51:35;;;;;;;52.38;30.38;;;18.50;99.90;;;;;;5044188;28;20120;-75
2022/08/28 05:54:01;;;;;;;51.72;30.65;;;18.50;99.90;;;;;;5037269;28;20033;-73
2022/08/28 05:56:34;;;;;;;52.33;31.45;;;18.50;99.90;;;;;;5028605;28;20025;-74
2022/08/28 05:59:01;;;;;;;55.70;32.10;;;18.50;99.90;;;;;;5038309;28;20026;-74
2022/08/28 06:01:33;;;;;;;57.95;30.95;;;18.50;99.90;;;;;;5033251;28;20535;-75
2022/08/28 06:04:05;;;;;;;53.83;30.63;;;18.50;99.90;;;;;;5027399;28;20045;-74
2022/08/28 06:06:34;;;;;;;52.33;30.15;;;18.50;99.90;;;;;;5031363;28;20033;-74
2022/08/28 06:09:03;;;;;;;57.60;30.85;;;18.50;99.90;;;;;;5027292;28;20029;-74
2022/08/28 06:11:29;;;;;;;55.30;29.38;;;18.50;99.90;;;;;;5028158;28;20034;-76
2022/08/28 06:13:56;;;;;;;55.47;30.42;;;18.50;99.90;;;;;;5038852;28;20018;-78
2022/08/28 06:16:22;;;;;;;52.20;28.08;;;18.50;99.90;;;;;;5034734;28;20508;-78
2022/08/28 06:18:49;;;;;;;49.53;27.73;;;18.50;99.90;;;;;;5027010;28;20030;-77
2022/08/28 06:21:15;;;;;;;50.08;28.88;;;18.50;99.90;;;;;;5039235;28;20018;-78
2022/08/28 06:23:41;;;;;;;44.65;26.73;;;18.50;99.90;;;;;;5054222;28;20029;-78
2022/08/28 06:26:07;;;;;;;41.78;26.55;;;18.50;99.90;;;;;;5034757;28;20060;-77
2022/08/28 06:28:33;;;;;;;38.72;23.30;;;18.50;99.90;;;;;;5038128;28;20033;-78
2022/08/28 06:31:01;;;;;;;40.40;24.48;;;18.60;99.90;;;;;;5038135;28;20040;-78
2022/08/28 06:33:27;;;;;;;45.70;25.38;;;18.60;99.90;;;;;;5036512;28;20048;-78
2022/08/28 06:35:54;;;;;;;40.08;24.88;;;18.60;99.90;;;;;;5042502;28;20030;-78
2022/08/28 06:38:23;;;;;;;35.47;23.40;;;18.60;99.90;;;;;;5053534;28;20025;-77
2022/08/28 06:40:55;;;;;;;42.75;22.48;;;18.60;99.90;;;;;;5026227;28;20406;-76
2022/08/28 06:43:24;;;;;;;35.25;22.10;;;18.70;99.90;;;;;;5024720;28;20060;-75
2022/08/28 06:45:53;;;;;;;36.20;22.70;;;18.80;99.90;;;;;;5025998;28;20441;-75
2022/08/28 06:48:22;;;;;;;35.33;22.50;;;18.80;99.90;;;;;;5026047;28;20037;-75
2022/08/28 06:50:49;;;;;;;35.92;21.67;;;18.80;99.90;;;;;;5031260;28;20538;-77
2022/08/28 06:53:16;;;;;;;36.08;22.85;;;18.90;99.90;;;;;;5027497;28;20010;-75
2022/08/28 06:55:42;;;;;;;35.67;22.38;;;18.90;99.90;;;;;;5041092;28;20120;-77
2022/08/28 06:58:11;;;;;;;36.15;22.13;;;18.90;99.90;;;;;;5024050;28;20139;-76
2022/08/28 07:00:39;;;;;;;34.95;22.20;;;19.00;99.90;;;;;;5035068;28;22309;-75
2022/08/28 07:03:05;;;;;;;35.08;21.85;;;19.00;99.90;;;;;;5030100;28;20026;-77
2022/08/28 07:05:32;;;;;;;37.05;23.60;;;19.10;99.90;;;;;;5029031;28;20028;-77
2022/08/28 07:07:58;;;;;;;37.13;23.67;;;19.10;99.90;;;;;;5048331;28;20022;-76
2022/08/28 07:10:24;;;;;;;34.28;21.88;;;19.10;99.90;;;;;;5017304;28;20099;-76
2022/08/28 07:12:50;;;;;;;34.45;22.90;;;19.10;99.90;;;;;;5024974;28;20022;-76
2022/08/28 07:15:17;;;;;;;38.33;23.08;;;19.20;99.90;;;;;;5018847;28;20049;-76
2022/08/28 07:17:43;;;;;;;36.53;21.58;;;19.20;99.90;;;;;;5036058;28;20109;-76
2022/08/28 07:20:10;;;;;;;35.15;22.05;;;19.30;99.90;;;;;;5025212;28;20041;-76
2022/08/28 07:22:42;;;;;;;33.67;20.08;;;19.30;99.90;;;;;;5025438;28;20080;-76
2022/08/28 07:25:10;;;;;;;31.08;19.33;;;19.40;99.90;;;;;;5027264;28;20485;-76
2022/08/28 07:27:37;;;;;;;31.65;19.77;;;19.50;99.90;;;;;;5040028;28;20221;-76
2022/08/28 07:30:05;;;;;;;30.92;19.05;;;19.60;99.90;;;;;;5022106;28;20482;-75
2022/08/28 07:32:32;;;;;;;28.13;19.05;;;19.60;99.90;;;;;;5025417;28;20030;-76
2022/08/28 07:34:58;;;;;;;24.90;17.38;;;19.70;99.90;;;;;;5020929;28;20515;-76
2022/08/28 07:37:27;;;;;;;29.33;19.35;;;19.80;99.90;;;;;;5030231;28;20061;-76
2022/08/28 07:39:52;;;;;;;27.70;18.17;;;19.90;99.90;;;;;;5028148;28;20034;-76
2022/08/28 07:45:03;;;;;;;26.92;17.20;;;20.00;99.90;;;;;;5029318;28;20484;-75
2022/08/28 07:47:33;;;;;;;25.85;17.10;;;20.00;99.90;;;;;;5026882;28;20025;-74
2022/08/28 07:50:00;;;;;;;26.77;16.08;;;20.10;99.90;;;;;;5021412;28;20026;-81
2022/08/28 07:52:26;;;;;;;24.17;17.58;;;20.10;99.90;;;;;;5025621;28;20048;-75
2022/08/28 07:54:53;;;;;;;26.27;15.48;;;20.20;99.90;;;;;;5018646;28;20029;-75
2022/08/28 07:57:20;;;;;;;23.50;15.73;;;20.30;99.90;;;;;;5029620;28;20029;-75
2022/08/28 07:59:47;;;;;;;27.73;17.65;;;20.30;99.90;;;;;;5030928;28;20037;-76
2022/08/28 08:02:13;;;;;;;27.08;16.35;;;20.30;99.90;;;;;;5022712;28;20057;-76
2022/08/28 08:04:39;;;;;;;26.90;16.70;;;20.40;99.90;;;;;;5024858;28;20030;-77
2022/08/28 08:07:05;;;;;;;22.30;14.85;;;20.40;99.90;;;;;;5024100;28;20029;-76
2022/08/28 08:09:35;;;;;;;23.85;15.98;;;20.50;99.90;;;;;;5023058;28;20397;-76
2022/08/28 08:12:01;;;;;;;25.40;15.32;;;20.50;99.90;;;;;;5045112;28;20026;-75
2022/08/28 08:14:27;;;;;;;23.05;16.77;;;20.50;99.90;;;;;;5020910;28;20033;-75
2022/08/28 08:16:52;;;;;;;21.83;14.30;;;20.60;99.90;;;;;;5029659;28;20025;-77
2022/08/28 08:19:19;;;;;;;24.17;15.90;;;20.50;99.90;;;;;;5027313;28;20034;-76
2022/08/28 08:21:47;;;;;;;23.15;15.38;;;20.50;99.90;;;;;;5038186;28;20080;-77
2022/08/28 08:24:19;;;;;;;25.63;15.32;;;20.50;99.90;;;;;;5016633;28;20618;-76
2022/08/28 08:26:49;;;;;;;25.00;15.13;;;20.60;99.90;;;;;;5028200;28;20044;-76
2022/08/28 08:29:15;;;;;;;23.92;15.10;;;20.60;99.90;;;;;;5031454;28;20524;-76
2022/08/28 08:31:41;;;;;;;27.13;14.13;;;20.60;99.90;;;;;;5030441;28;20030;-76
2022/08/28 08:34:08;;;;;;;24.35;14.15;;;20.70;99.90;;;;;;5022469;28;20663;-75
2022/08/28 08:36:36;;;;;;;24.08;15.07;;;20.70;99.90;;;;;;5032390;28;20040;-75
2022/08/28 08:39:04;;;;;;;19.83;14.02;;;20.70;99.90;;;;;;5027790;28;20056;-76
2022/08/28 08:41:50;;;;;;;19.98;13.63;;;20.70;99.90;;;;;;5019564;28;20062;-76
2022/08/28 08:44:42;;;;;;;19.52;13.73;;;20.70;99.90;;;;;;5023848;28;20480;-76
2022/08/28 08:47:38;;;;;;;19.15;12.13;;;20.80;99.90;;;;;;5026017;28;20029;-76
2022/08/28 08:50:30;;;;;;;17.00;12.52;;;20.80;99.90;;;;;;5029432;28;20032;-76
2022/08/28 08:53:09;;;;;;;21.95;13.60;;;20.80;99.90;;;;;;5028564;28;20021;-76
2022/08/28 08:55:46;;;;;;;21.17;12.77;;;20.80;99.90;;;;;;5007513;28;20035;-77
2022/08/28 08:58:23;;;;;;;19.67;13.23;;;20.90;99.90;;;;;;4999117;28;20132;-75
2022/08/28 09:01:08;;;;;;;19.20;12.90;;;20.90;99.90;;;;;;5009637;28;20033;-75
2022/08/28 09:03:52;;;;;;;18.35;12.65;;;21.00;99.90;;;;;;5018072;28;20489;-77
2022/08/28 09:06:43;;;;;;;20.42;13.90;;;21.00;99.90;;;;;;5015857;28;20363;-76
2022/08/28 09:09:33;;;;;;;18.30;12.93;;;21.00;99.90;;;;;;4987770;28;20445;-76
2022/08/28 09:12:09;;;;;;;18.92;13.35;;;21.10;99.90;;;;;;5021294;28;20025;-75
2022/08/28 09:15:04;;;;;;;22.98;13.02;;;21.20;99.90;;;;;;5015466;28;21487;-75
2022/08/28 09:17:35;;;;;;;20.17;12.65;;;21.30;99.90;;;;;;5021674;28;20032;-75
2022/08/28 09:20:01;;;;;;;16.83;11.20;;;21.40;99.90;;;;;;5019543;28;20025;-75
2022/08/28 09:22:27;;;;;;;16.20;11.27;;;21.50;99.90;;;;;;5020651;28;20111;-74
2022/08/28 09:24:53;;;;;;;17.33;11.50;;;21.50;99.90;;;;;;5025013;28;20542;-76
2022/08/28 09:27:24;;;;;;;16.27;10.88;;;21.60;99.90;;;;;;5027949;28;20057;-74
2022/08/28 09:29:58;;;;;;;24.23;9.48;;;21.60;99.90;;;;;;5020461;28;20052;-76
2022/08/28 09:32:30;;;;;;;16.15;11.18;;;21.80;99.90;;;;;;5021458;28;20022;-76
2022/08/28 09:34:59;;;;;;;15.63;10.30;;;22.00;99.90;;;;;;5019014;28;21308;-74
2022/08/28 09:37:26;;;;;;;18.65;9.50;;;22.00;99.90;;;;;;5040953;28;20029;-75
2022/08/28 09:40:14;;;;;;;14.15;8.20;;;22.00;99.90;;;;;;5023736;28;20533;-76
2022/08/28 09:45:39;;;;;;;12.60;9.65;;;22.00;99.90;;;;;;5029629;28;20029;-79
2022/08/28 09:48:42;;;;;;;13.02;9.82;;;22.00;99.90;;;;;;5037073;28;20033;-75
2022/08/28 09:51:12;;;;;;;11.70;7.45;;;22.00;99.90;;;;;;5021726;28;20080;-78
2022/08/28 09:53:53;;;;;;;16.90;8.45;;;22.10;99.90;;;;;;5024835;28;20032;-76
2022/08/28 09:56:33;;;;;;;10.88;6.68;;;22.20;99.90;;;;;;5033102;28;20060;-75
2022/08/28 09:59:18;;;;;;;12.90;7.60;;;22.30;99.90;;;;;;5026123;28;20029;-77
2022/08/28 10:01:50;;;;;;;10.30;7.45;;;22.20;99.90;;;;;;5030285;28;20040;-76
2022/08/28 10:05:09;;;;;;;10.65;7.72;;;22.30;99.90;;;;;;5062122;28;20017;-76
2022/08/28 10:07:55;;;;;;;15.32;9.88;;;22.40;99.90;;;;;;4952285;28;20040;-77
2022/08/28 10:10:42;;;;;;;13.25;9.40;;;22.40;99.90;;;;;;5028907;28;20111;-76
2022/08/28 10:13:32;;;;;;;13.68;9.15;;;22.40;99.90;;;;;;5040853;28;20424;-77
2022/08/28 10:16:30;;;;;;;15.57;9.32;;;22.30;99.90;;;;;;5052502;28;20152;-76
2022/08/28 10:19:15;;;;;;;14.85;8.70;;;22.30;99.90;;;;;;5056035;28;20596;-75
2022/08/28 10:21:55;;;;;;;10.38;7.90;;;22.30;99.90;;;;;;5039843;28;20032;-78
2022/08/28 10:24:29;;;;;;;11.93;8.07;;;22.20;99.90;;;;;;5023345;28;20057;-76
2022/08/28 10:27:08;;;;;;;10.55;7.63;;;22.30;99.90;;;;;;5031606;28;20063;-75
2022/08/28 10:29:44;;;;;;;9.50;6.68;;;22.30;99.90;;;;;;5023787;28;20045;-76
2022/08/28 10:32:39;;;;;;;9.27;6.72;;;22.40;99.90;;;;;;5042419;28;20040;-75
2022/08/28 10:35:14;;;;;;;11.07;8.20;;;22.60;99.90;;;;;;5012601;28;20567;-77
2022/08/28 10:38:18;;;;;;;10.23;7.80;;;22.60;99.90;;;;;;5032704;28;20033;-78
2022/08/28 10:40:59;;;;;;;15.15;7.30;;;22.60;99.90;;;;;;5041861;28;20045;-77
2022/08/28 10:43:42;;;;;;;11.85;7.72;;;22.80;99.90;;;;;;5035252;28;20037;-78
2022/08/28 10:46:16;;;;;;;14.52;7.93;;;22.90;99.90;;;;;;5035529;28;20029;-76
2022/08/28 10:48:47;;;;;;;10.90;6.10;;;23.10;99.90;;;;;;5034149;28;20034;-76
2022/08/28 10:51:36;;;;;;;8.43;5.85;;;23.00;99.90;;;;;;5028516;28;20029;-75
2022/08/28 10:54:10;;;;;;;11.80;6.35;;;23.10;99.90;;;;;;5018598;28;20034;-75
2022/08/28 10:56:42;;;;;;;12.00;6.93;;;23.00;99.90;;;;;;5024886;28;23602;-75
2022/08/28 10:59:07;;;;;;;8.98;7.28;;;23.10;99.90;;;;;;5027747;28;20075;-75
2022/08/28 11:01:40;;;;;;;14.30;8.15;;;23.10;99.90;;;;;;5017956;28;20420;-76
2022/08/28 11:04:16;;;;;;;10.70;6.80;;;23.10;99.90;;;;;;5030248;28;20026;-75
2022/08/28 11:06:45;;;;;;;7.50;6.10;;;23.10;99.90;;;;;;5026312;28;20037;-76
2022/08/28 11:09:27;;;;;;;7.68;5.25;;;23.10;99.90;;;;;;5014159;28;20030;-76
2022/08/28 11:12:06;;;;;;;9.90;5.85;;;23.10;99.90;;;;;;5024123;28;20030;-73
2022/08/28 11:14:33;;;;;;;7.75;5.25;;;23.10;99.90;;;;;;5035255;28;20026;-75
2022/08/28 11:17:29;;;;;;;8.18;5.15;;;23.00;99.90;;;;;;5025218;28;20033;-75
2022/08/28 11:20:14;;;;;;;11.15;5.07;;;23.10;99.90;;;;;;5037825;28;20037;-75
2022/08/28 11:22:54;;;;;;;6.28;4.90;;;23.30;99.90;;;;;;5027818;28;20026;-75
2022/08/28 11:25:31;;;;;;;7.88;5.40;;;23.40;99.90;;;;;;5025259;28;20052;-78
2022/08/28 11:28:26;;;;;;;9.95;5.20;;;23.40;99.90;;;;;;5035535;28;20022;-74
2022/08/28 11:30:57;;;;;;;11.77;6.55;;;23.40;99.90;;;;;;5019546;28;20363;-74
2022/08/28 11:33:38;;;;;;;9.05;5.32;;;23.40;99.90;;;;;;5021956;28;20044;-74
2022/08/28 11:36:11;;;;;;;7.25;5.28;;;23.40;99.90;;;;;;5025810;28;20471;-72
2022/08/28 11:38:40;;;;;;;10.50;5.82;;;23.50;99.90;;;;;;5045807;28;20037;-74
2022/08/28 11:41:35;;;;;;;9.25;5.50;;;23.60;99.90;;;;;;5021030;28;20157;-74
2022/08/28 11:44:11;;;;;;;6.97;4.93;;;23.60;99.90;;;;;;4996958;23;1160602;-76
2022/08/28 11:47:16;;;;;;;8.00;5.40;;;23.60;99.90;;;;;;5014426;28;20510;-76
2022/08/28 11:49:44;;;;;;;14.68;6.97;;;23.60;99.90;;;;;;5013041;28;20030;-76
2022/08/28 11:52:28;;;;;;;13.10;5.75;;;23.70;99.90;;;;;;5028594;28;20026;-76
2022/08/28 11:55:28;;;;;;;8.70;5.90;;;23.80;99.90;;;;;;5013592;28;20021;-76
2022/08/28 11:58:02;;;;;;;10.82;5.45;;;23.80;99.90;;;;;;5014129;28;20071;-77
2022/08/28 12:00:54;;;;;;;8.43;5.72;;;23.90;99.90;;;;;;5010077;28;20076;-77
2022/08/28 12:03:41;;;;;;;14.85;8.05;;;23.80;99.90;;;;;;5030068;28;20038;-76
2022/08/28 12:06:07;;;;;;;10.57;6.88;;;23.80;99.90;;;;;;5011985;28;20029;-76
2022/08/28 12:08:49;;;;;;;8.85;5.72;;;23.90;99.90;;;;;;5006367;28;20026;-76
2022/08/28 12:11:40;;;;;;;14.38;7.57;;;23.90;99.90;;;;;;5018338;28;20097;-77
2022/08/28 12:14:35;;;;;;;6.63;5.45;;;23.80;99.90;;;;;;5018942;28;20018;-77
2022/08/28 12:17:04;;;;;;;10.13;5.90;;;23.70;99.90;;;;;;5004883;28;20550;-76
2022/08/28 12:19:54;;;;;;;8.68;6.10;;;23.60;99.90;;;;;;5005206;28;20997;-77
2022/08/28 12:22:25;;;;;;;12.68;6.10;;;23.60;99.90;;;;;;5022164;28;20032;-76
2022/08/28 12:24:59;;;;;;;8.65;6.05;;;23.60;99.90;;;;;;5031504;28;20025;-76
2022/08/28 12:27:26;;;;;;;14.50;7.03;;;23.60;99.90;;;;;;5028441;28;20053;-76
2022/08/28 12:29:54;;;;;;;10.63;5.88;;;23.50;99.90;;;;;;5013399;28;20014;-76
2022/08/28 12:32:30;;;;;;;6.70;5.30;;;23.50;99.90;;;;;;5014912;28;20516;-76
2022/08/28 12:34:58;;;;;;;11.40;6.88;;;23.50;99.90;;;;;;5007050;28;20077;-76
2022/08/28 12:37:39;;;;;;;10.73;5.80;;;23.50;99.90;;;;;;5013427;28;20049;-77
2022/08/28 12:40:18;;;;;;;7.65;5.55;;;23.50;99.90;;;;;;5015346;28;20028;-77
2022/08/28 12:42:54;;;;;;;8.35;5.28;;;23.50;99.90;;;;;;5029350;28;20026;-76
2022/08/28 12:45:26;;;;;;;5.78;5.20;;;23.60;99.90;;;;;;5013135;28;20483;-77
2022/08/28 12:47:56;;;;;;;8.68;5.20;;;23.60;99.90;;;;;;5014511;28;20101;-78
2022/08/28 12:50:33;;;;;;;10.20;4.90;;;23.60;99.90;;;;;;5013048;28;20018;-78
2022/08/28 12:53:02;;;;;;;6.82;4.78;;;23.60;99.90;;;;;;5011665;28;20018;-77
2022/08/28 12:55:28;;;;;;;10.68;5.57;;;23.70;99.90;;;;;;5014860;28;20030;-79
2022/08/28 12:57:57;;;;;;;8.15;5.28;;;23.70;99.90;;;;;;5030471;28;20499;-80
2022/08/28 13:00:33;;;;;;;12.23;5.85;;;23.60;99.90;;;;;;5033252;28;20104;-78
2022/08/28 13:03:00;;;;;;;7.13;5.15;;;23.60;99.90;;;;;;5018825;28;20087;-78